Time;durP1;ratioP1;P1;durP2;ratioP2;P2;SDS_P1;SDS_P2;PMS_P1;PMS_P2;Temp;Humidity;BMP_temperature;BMP_pressure;BME280_temperature;BME280_humidity;BME280_pressure;Samples;Min_cycle;Max_cycle;Signal;HPM_P1;HPM_P2
2022/08/19 00:01:15;;;;;;;;;;;22.00;42.50;;;;;;490291;242;1126;-51
2022/08/19 00:03:17;;;;;;;;;;;22.00;42.50;;;;;;490292;242;1178;-51
2022/08/19 00:05:18;;;;;;;;;;;22.00;42.50;;;;;;490028;242;1245;-51
2022/08/19 00:07:19;;;;;;;;;;;22.00;42.50;;;;;;489989;242;1480;-51
2022/08/19 00:09:21;;;;;;;;;;;22.00;42.50;;;;;;490111;242;1643;-51
2022/08/19 00:11:22;;;;;;;;;;;22.00;42.50;;;;;;489882;242;1272;-51
2022/08/19 00:13:23;;;;;;;;;;;22.00;42.50;;;;;;490217;242;2146;-51
2022/08/19 00:15:25;;;;;;;;;;;22.00;42.40;;;;;;489801;242;1280;-50
2022/08/19 00:17:26;;;;;;;;;;;22.00;42.40;;;;;;490226;242;1343;-51
2022/08/19 00:19:27;;;;;;;;;;;22.00;42.40;;;;;;490019;242;1302;-51
2022/08/19 00:21:29;;;;;;;;;;;22.00;42.40;;;;;;489775;242;1324;-50
2022/08/19 00:23:30;;;;;;;;;;;22.00;42.40;;;;;;490228;242;1277;-50
2022/08/19 00:25:31;;;;;;;;;;;22.00;42.40;;;;;;489927;242;1222;-50
2022/08/19 00:27:33;;;;;;;;;;;22.00;42.40;;;;;;490248;242;1299;-51
2022/08/19 00:29:34;;;;;;;;;;;22.00;42.40;;;;;;489800;242;1313;-50
2022/08/19 00:31:36;;;;;;;;;;;22.00;42.30;;;;;;490257;242;1360;-51
2022/08/19 00:33:37;;;;;;;;;;;22.00;42.40;;;;;;489772;242;2176;-53
2022/08/19 00:35:38;;;;;;;;;;;22.00;42.40;;;;;;489965;242;1288;-51
2022/08/19 00:37:42;;;;;;;;;;;22.00;42.40;;;;;;490021;242;1317;-50
2022/08/19 00:39:42;;;;;;;;;;;22.00;42.40;;;;;;489924;242;2373;-50
2022/08/19 00:41:44;;;;;;;;;;;22.00;42.30;;;;;;489804;242;1220;-50
2022/08/19 00:43:45;;;;;;;;;;;22.00;42.30;;;;;;489812;242;1326;-50
2022/08/19 00:45:47;;;;;;;;;;;22.00;42.40;;;;;;490221;242;1370;-50
2022/08/19 00:47:48;;;;;;;;;;;22.00;42.30;;;;;;489820;242;2325;-50
2022/08/19 00:49:50;;;;;;;;;;;22.00;42.30;;;;;;490262;242;1296;-50
2022/08/19 00:51:51;;;;;;;;;;;22.00;42.30;;;;;;489949;242;1788;-50
2022/08/19 00:53:52;;;;;;;;;;;22.00;42.30;;;;;;490187;242;2150;-50
2022/08/19 00:55:54;;;;;;;;;;;22.00;42.40;;;;;;489809;242;1363;-51
2022/08/19 00:57:55;;;;;;;;;;;22.00;42.50;;;;;;490294;242;1200;-51
2022/08/19 00:59:56;;;;;;;;;;;22.00;42.50;;;;;;490263;242;1514;-50
2022/08/19 01:01:57;;;;;;;;;;;22.00;42.50;;;;;;490242;242;1829;-51
2022/08/19 01:03:59;;;;;;;;;;;22.00;42.50;;;;;;490254;242;1343;-51
2022/08/19 01:06:00;;;;;;;;;;;22.00;42.50;;;;;;490102;242;1328;-51
2022/08/19 01:08:02;;;;;;;;;;;22.00;42.50;;;;;;490232;242;1291;-50
2022/08/19 01:10:03;;;;;;;;;;;22.00;42.50;;;;;;489830;242;2072;-51
2022/08/19 01:12:04;;;;;;;;;;;22.00;42.40;;;;;;489981;242;1309;-50
2022/08/19 01:14:06;;;;;;;;;;;22.00;42.40;;;;;;490137;242;2150;-50
2022/08/19 01:16:07;;;;;;;;;;;22.00;42.40;;;;;;490019;242;1238;-50
2022/08/19 01:18:08;;;;;;;;;;;22.00;42.40;;;;;;490174;242;1304;-50
2022/08/19 01:20:09;;;;;;;;;;;22.00;42.40;;;;;;489823;242;1506;-51
2022/08/19 01:22:11;;;;;;;;;;;22.00;42.30;;;;;;490278;242;1221;-51
2022/08/19 01:24:12;;;;;;;;;;;22.00;42.40;;;;;;490251;242;1294;-50
2022/08/19 01:26:14;;;;;;;;;;;22.00;42.30;;;;;;490014;242;1346;-51
2022/08/19 01:28:15;;;;;;;;;;;22.00;42.30;;;;;;490288;242;1296;-51
2022/08/19 01:30:16;;;;;;;;;;;22.00;42.30;;;;;;489829;242;1365;-50
2022/08/19 01:32:19;;;;;;;;;;;22.00;42.30;;;;;;490190;242;1295;-51
2022/08/19 01:34:19;;;;;;;;;;;22.00;42.30;;;;;;489794;242;2296;-50
2022/08/19 01:36:20;;;;;;;;;;;22.00;42.30;;;;;;490280;242;1270;-50
2022/08/19 01:38:21;;;;;;;;;;;22.00;42.30;;;;;;490245;242;1204;-51
2022/08/19 01:40:23;;;;;;;;;;;22.00;42.30;;;;;;490212;242;1257;-50
2022/08/19 01:42:24;;;;;;;;;;;22.00;42.30;;;;;;489828;242;1324;-51
2022/08/19 01:44:25;;;;;;;;;;;22.00;42.30;;;;;;490296;242;1220;-51
2022/08/19 01:46:27;;;;;;;;;;;22.00;42.30;;;;;;489833;242;1389;-50
2022/08/19 01:48:30;;;;;;;;;;;22.00;42.30;;;;;;490260;242;1256;-50
2022/08/19 01:50:30;;;;;;;;;;;22.00;42.30;;;;;;490316;242;2276;-51
2022/08/19 01:52:31;;;;;;;;;;;22.00;42.30;;;;;;490185;242;1413;-51
2022/08/19 01:54:32;;;;;;;;;;;22.00;42.30;;;;;;490275;242;2154;-51
2022/08/19 01:58:46;;;;;;;;;;;22.00;42.30;;;;;;489830;242;1267;-51
2022/08/19 02:00:46;;;;;;;;;;;22.00;42.30;;;;;;489819;242;2064;-50
2022/08/19 02:02:48;;;;;;;;;;;22.00;42.30;;;;;;489892;242;1281;-50
2022/08/19 02:04:49;;;;;;;;;;;22.00;42.30;;;;;;490281;242;1393;-51
2022/08/19 02:06:50;;;;;;;;;;;22.00;42.20;;;;;;490275;242;1315;-51
2022/08/19 02:08:52;;;;;;;;;;;22.00;42.30;;;;;;490235;242;1284;-51
2022/08/19 02:10:53;;;;;;;;;;;22.00;42.30;;;;;;489979;242;1266;-50
2022/08/19 02:12:54;;;;;;;;;;;22.00;42.30;;;;;;489845;242;1312;-51
2022/08/19 02:14:56;;;;;;;;;;;22.00;42.30;;;;;;490246;242;2201;-51
2022/08/19 02:16:57;;;;;;;;;;;22.00;42.20;;;;;;490214;242;1416;-50
2022/08/19 02:19:00;;;;;;;;;;;22.00;42.20;;;;;;490272;242;1227;-50
2022/08/19 02:21:01;;;;;;;;;;;22.00;42.10;;;;;;489817;242;1294;-50
2022/08/19 02:23:02;;;;;;;;;;;22.00;42.20;;;;;;490100;242;1314;-50
2022/08/19 02:25:04;;;;;;;;;;;22.00;42.20;;;;;;490208;242;1281;-51
2022/08/19 02:27:05;;;;;;;;;;;22.00;42.20;;;;;;489794;242;1260;-51
2022/08/19 02:29:07;;;;;;;;;;;22.00;42.20;;;;;;489815;242;1156;-51
2022/08/19 02:31:08;;;;;;;;;;;22.00;42.20;;;;;;490050;242;1253;-51
2022/08/19 02:33:09;;;;;;;;;;;22.00;42.20;;;;;;489826;242;1351;-50
2022/08/19 02:35:11;;;;;;;;;;;22.00;42.20;;;;;;490258;242;2149;-51
2022/08/19 02:39:33;;;;;;;;;;;22.00;42.10;;;;;;489787;242;2392;-50
2022/08/19 02:41:34;;;;;;;;;;;22.00;42.10;;;;;;490116;242;1283;-51
2022/08/19 02:43:36;;;;;;;;;;;22.10;42.20;;;;;;489791;242;1243;-50
2022/08/19 02:45:37;;;;;;;;;;;22.00;42.20;;;;;;490100;242;2034;-50
2022/08/19 02:47:38;;;;;;;;;;;22.00;42.30;;;;;;490066;242;1227;-50
2022/08/19 02:49:40;;;;;;;;;;;22.00;42.30;;;;;;490233;242;1235;-51
2022/08/19 02:51:41;;;;;;;;;;;22.00;42.40;;;;;;490246;242;1216;-51
2022/08/19 02:53:43;;;;;;;;;;;22.00;42.30;;;;;;489744;242;1360;-51
2022/08/19 02:55:44;;;;;;;;;;;22.00;42.30;;;;;;490223;242;2185;-50
2022/08/19 02:57:46;;;;;;;;;;;22.00;42.30;;;;;;489880;242;1302;-51
2022/08/19 02:59:47;;;;;;;;;;;22.00;42.30;;;;;;490237;242;1209;-50
2022/08/19 03:01:48;;;;;;;;;;;22.00;42.30;;;;;;490253;242;1267;-51
2022/08/19 03:03:50;;;;;;;;;;;22.00;42.30;;;;;;490225;242;1301;-50
2022/08/19 03:05:51;;;;;;;;;;;22.00;42.20;;;;;;490084;242;2219;-51
2022/08/19 03:07:52;;;;;;;;;;;22.00;42.20;;;;;;490148;242;1271;-51
2022/08/19 03:09:53;;;;;;;;;;;22.00;42.20;;;;;;490214;242;1343;-50
2022/08/19 03:11:55;;;;;;;;;;;22.00;42.20;;;;;;489840;242;1289;-51
2022/08/19 03:13:56;;;;;;;;;;;22.00;42.20;;;;;;490205;242;1299;-50
2022/08/19 03:15:57;;;;;;;;;;;22.00;42.20;;;;;;490236;242;2153;-51
2022/08/19 03:17:59;;;;;;;;;;;22.00;42.30;;;;;;490036;242;1252;-50
2022/08/19 03:20:00;;;;;;;;;;;22.00;42.20;;;;;;490242;242;1227;-50
2022/08/19 03:22:02;;;;;;;;;;;22.00;42.30;;;;;;490080;242;1276;-50
2022/08/19 03:24:03;;;;;;;;;;;22.00;42.20;;;;;;490231;242;2095;-51
2022/08/19 03:26:04;;;;;;;;;;;22.00;42.20;;;;;;489942;242;1260;-51
2022/08/19 03:28:05;;;;;;;;;;;22.00;42.20;;;;;;489821;242;1229;-50
2022/08/19 03:30:07;;;;;;;;;;;22.00;42.20;;;;;;490142;242;1300;-50
2022/08/19 03:32:08;;;;;;;;;;;22.00;42.20;;;;;;489915;242;1274;-51
2022/08/19 03:34:11;;;;;;;;;;;22.00;42.20;;;;;;490281;242;1259;-50
2022/08/19 03:36:11;;;;;;;;;;;22.00;42.20;;;;;;489853;242;2205;-50
2022/08/19 03:38:12;;;;;;;;;;;22.00;42.20;;;;;;490250;242;1329;-51
2022/08/19 03:40:13;;;;;;;;;;;22.00;42.20;;;;;;490231;242;1345;-50
2022/08/19 03:42:16;;;;;;;;;;;22.00;42.20;;;;;;490057;242;1317;-50
2022/08/19 03:44:17;;;;;;;;;;;22.00;42.20;;;;;;489798;242;1851;-52
2022/08/19 03:46:20;;;;;;;;;;;22.00;42.10;;;;;;490245;242;2280;-50
2022/08/19 03:48:19;;;;;;;;;;;22.00;42.10;;;;;;489894;242;2172;-50
2022/08/19 03:50:20;;;;;;;;;;;22.00;42.10;;;;;;489818;242;1230;-51
2022/08/19 03:52:21;;;;;;;;;;;22.00;42.10;;;;;;490041;242;1348;-51
2022/08/19 03:54:23;;;;;;;;;;;22.00;42.10;;;;;;490226;242;1370;-50
2022/08/19 03:56:25;;;;;;;;;;;22.00;42.10;;;;;;489773;242;2118;-50
2022/08/19 03:58:27;;;;;;;;;;;22.00;42.10;;;;;;489751;242;1368;-50
2022/08/19 04:00:28;;;;;;;;;;;22.00;42.10;;;;;;489785;242;2420;-51
2022/08/19 04:02:29;;;;;;;;;;;22.00;42.10;;;;;;490219;242;1305;-50
2022/08/19 04:04:30;;;;;;;;;;;22.00;42.10;;;;;;489751;242;1407;-50
2022/08/19 04:06:32;;;;;;;;;;;22.00;42.10;;;;;;489825;242;1275;-50
2022/08/19 04:08:33;;;;;;;;;;;22.00;42.10;;;;;;489721;242;1423;-51
2022/08/19 04:10:34;;;;;;;;;;;22.00;42.10;;;;;;490219;242;1385;-50
2022/08/19 04:12:36;;;;;;;;;;;22.00;42.10;;;;;;490075;242;1272;-49
2022/08/19 04:14:37;;;;;;;;;;;22.00;42.10;;;;;;489674;242;1275;-51
2022/08/19 04:16:39;;;;;;;;;;;22.00;42.10;;;;;;489764;242;2115;-51
2022/08/19 04:18:40;;;;;;;;;;;22.00;42.10;;;;;;489790;242;1343;-50
2022/08/19 04:20:41;;;;;;;;;;;22.00;42.00;;;;;;489816;242;1377;-51
2022/08/19 04:22:43;;;;;;;;;;;22.00;42.00;;;;;;489987;242;1297;-50
2022/08/19 04:24:44;;;;;;;;;;;22.00;42.10;;;;;;490105;242;1288;-51
2022/08/19 04:26:45;;;;;;;;;;;22.00;42.00;;;;;;489938;242;1167;-50
2022/08/19 04:28:47;;;;;;;;;;;22.00;42.10;;;;;;489813;242;1205;-50
2022/08/19 04:30:48;;;;;;;;;;;22.00;42.00;;;;;;490267;242;1264;-50
2022/08/19 04:32:50;;;;;;;;;;;22.00;42.00;;;;;;490293;242;1283;-51
2022/08/19 04:34:51;;;;;;;;;;;22.00;42.10;;;;;;490112;242;2166;-51
2022/08/19 04:36:52;;;;;;;;;;;22.00;42.20;;;;;;489863;242;1107;-51
2022/08/19 04:38:53;;;;;;;;;;;22.00;42.20;;;;;;490274;242;1125;-51
2022/08/19 04:43:14;;;;;;;;;;;22.00;42.40;;;;;;490147;241;1271;-50
2022/08/19 04:45:15;;;;;;;;;;;22.00;42.50;;;;;;490110;242;1195;-50
2022/08/19 04:47:16;;;;;;;;;;;22.00;42.60;;;;;;490313;242;1091;-50
2022/08/19 04:49:18;;;;;;;;;;;22.00;42.60;;;;;;490315;242;1097;-50
2022/08/19 04:51:20;;;;;;;;;;;22.00;42.70;;;;;;490023;242;1304;-51
2022/08/19 04:53:20;;;;;;;;;;;22.00;42.80;;;;;;490247;242;1907;-51
2022/08/19 04:55:22;;;;;;;;;;;22.00;42.80;;;;;;490015;242;2209;-50
2022/08/19 04:57:30;;;;;;;;;;;22.00;42.90;;;;;;489847;242;1836;-50
2022/08/19 04:59:32;;;;;;;;;;;22.00;42.90;;;;;;489826;242;1161;-51
2022/08/19 05:01:33;;;;;;;;;;;22.00;43.00;;;;;;490285;242;2161;-50
2022/08/19 05:03:34;;;;;;;;;;;22.00;42.90;;;;;;490304;242;1331;-51
2022/08/19 05:05:35;;;;;;;;;;;22.00;42.80;;;;;;490306;242;1259;-50
2022/08/19 05:07:37;;;;;;;;;;;22.00;42.80;;;;;;490246;242;1202;-50
2022/08/19 05:09:38;;;;;;;;;;;22.00;42.80;;;;;;489802;242;1345;-51
2022/08/19 05:11:39;;;;;;;;;;;22.00;42.80;;;;;;490226;242;1419;-51
2022/08/19 05:13:42;;;;;;;;;;;22.00;42.80;;;;;;489813;242;1206;-51
2022/08/19 05:15:42;;;;;;;;;;;22.00;42.70;;;;;;490005;242;2523;-51
2022/08/19 05:22:31;;;;;;;;;;;22.00;42.70;;;;;;489780;242;1337;-51
2022/08/19 05:24:24;;;;;;;;;;;22.00;42.60;;;;;;490249;241;1260;-50
2022/08/19 05:26:25;;;;;;;;;;;22.00;42.60;;;;;;490209;242;1237;-50
2022/08/19 05:28:27;;;;;;;;;;;22.00;42.50;;;;;;489840;242;1268;-50
2022/08/19 05:30:28;;;;;;;;;;;22.00;42.50;;;;;;490066;242;1402;-51
2022/08/19 05:32:29;;;;;;;;;;;22.00;42.50;;;;;;489794;242;1242;-50
2022/08/19 05:34:31;;;;;;;;;;;22.00;42.50;;;;;;490168;242;1285;-51
2022/08/19 05:36:32;;;;;;;;;;;22.00;42.50;;;;;;489959;242;2145;-51
2022/08/19 05:38:33;;;;;;;;;;;22.00;42.50;;;;;;490239;242;1288;-50
2022/08/19 05:40:35;;;;;;;;;;;22.00;42.50;;;;;;489984;242;1337;-50
2022/08/19 05:42:36;;;;;;;;;;;22.00;42.40;;;;;;489760;242;1350;-51
2022/08/19 05:44:38;;;;;;;;;;;22.00;42.40;;;;;;489904;242;1281;-50
2022/08/19 05:46:39;;;;;;;;;;;22.00;42.40;;;;;;489893;242;1325;-51
2022/08/19 05:48:40;;;;;;;;;;;22.00;42.30;;;;;;489831;242;1411;-51
2022/08/19 05:50:42;;;;;;;;;;;22.00;42.40;;;;;;489813;242;1281;-50
2022/08/19 05:52:43;;;;;;;;;;;22.00;42.30;;;;;;489770;242;1299;-50
2022/08/19 05:54:44;;;;;;;;;;;22.00;42.40;;;;;;489983;242;1297;-51
2022/08/19 05:56:47;;;;;;;;;;;22.00;42.30;;;;;;489786;242;2196;-51
2022/08/19 05:58:47;;;;;;;;;;;22.00;42.30;;;;;;490234;242;2216;-50
2022/08/19 06:00:49;;;;;;;;;;;22.00;42.30;;;;;;490129;242;1416;-50
2022/08/19 06:02:50;;;;;;;;;;;22.00;42.30;;;;;;489956;242;2076;-51
2022/08/19 06:04:51;;;;;;;;;;;22.00;42.30;;;;;;490069;242;1378;-51
2022/08/19 06:06:53;;;;;;;;;;;22.00;42.30;;;;;;490141;242;1279;-51
2022/08/19 06:08:54;;;;;;;;;;;22.00;42.30;;;;;;489912;242;1503;-50
2022/08/19 06:10:55;;;;;;;;;;;22.00;42.30;;;;;;490056;242;1348;-51
2022/08/19 06:12:56;;;;;;;;;;;22.00;42.40;;;;;;489864;242;1267;-50
2022/08/19 06:14:58;;;;;;;;;;;22.00;42.40;;;;;;489843;242;1261;-51
2022/08/19 06:16:59;;;;;;;;;;;22.00;42.50;;;;;;490219;242;2106;-50
2022/08/19 06:19:01;;;;;;;;;;;22.00;42.50;;;;;;489987;242;1373;-50
2022/08/19 06:21:03;;;;;;;;;;;22.00;42.50;;;;;;489804;242;1280;-50
2022/08/19 06:23:03;;;;;;;;;;;22.00;42.60;;;;;;489769;242;1484;-51
2022/08/19 06:25:05;;;;;;;;;;;22.00;42.60;;;;;;489634;242;1311;-51
2022/08/19 06:27:06;;;;;;;;;;;22.00;42.60;;;;;;489572;242;1215;-50
2022/08/19 06:29:07;;;;;;;;;;;22.00;42.70;;;;;;489668;242;1324;-50
2022/08/19 06:31:08;;;;;;;;;;;22.00;42.70;;;;;;490090;242;1224;-50
2022/08/19 06:33:10;;;;;;;;;;;22.10;42.80;;;;;;489829;242;1228;-50
2022/08/19 06:35:13;;;;;;;;;;;22.00;42.70;;;;;;489842;242;1203;-51
2022/08/19 06:37:13;;;;;;;;;;;22.00;42.80;;;;;;489555;242;2193;-51
2022/08/19 06:39:14;;;;;;;;;;;22.00;42.90;;;;;;489534;242;1226;-49
2022/08/19 06:41:15;;;;;;;;;;;22.00;42.90;;;;;;489633;242;1217;-50
2022/08/19 06:43:17;;;;;;;;;;;22.00;42.90;;;;;;489572;242;1268;-51
2022/08/19 06:45:20;;;;;;;;;;;22.00;42.90;;;;;;489595;242;1215;-50
2022/08/19 06:47:19;;;;;;;;;;;22.10;43.00;;;;;;490082;242;1917;-52
2022/08/19 06:49:21;;;;;;;;;;;22.00;43.00;;;;;;489598;242;1257;-50
2022/08/19 06:51:23;;;;;;;;;;;22.00;43.10;;;;;;490074;242;1327;-50
2022/08/19 06:53:23;;;;;;;;;;;22.00;43.10;;;;;;489815;242;2270;-50
2022/08/19 06:55:24;;;;;;;;;;;22.00;43.30;;;;;;489803;242;1368;-50
2022/08/19 06:57:26;;;;;;;;;;;22.00;43.40;;;;;;489582;242;2192;-50
2022/08/19 06:59:27;;;;;;;;;;;22.00;43.50;;;;;;489608;242;1217;-50
2022/08/19 07:01:29;;;;;;;;;;;22.00;43.50;;;;;;489406;242;1178;-51
2022/08/19 07:03:30;;;;;;;;;;;22.00;43.60;;;;;;489559;242;1201;-50
2022/08/19 07:05:31;;;;;;;;;;;22.00;43.60;;;;;;489519;242;1309;-50
2022/08/19 07:07:33;;;;;;;;;;;22.00;43.70;;;;;;489743;242;1262;-50
2022/08/19 07:09:34;;;;;;;;;;;22.00;43.60;;;;;;489893;242;1284;-51
2022/08/19 07:11:35;;;;;;;;;;;22.00;43.60;;;;;;489563;242;1311;-50
2022/08/19 07:13:37;;;;;;;;;;;22.00;43.70;;;;;;489525;242;1208;-51
2022/08/19 07:15:38;;;;;;;;;;;22.00;43.70;;;;;;489556;242;1297;-50
2022/08/19 07:17:40;;;;;;;;;;;22.00;43.70;;;;;;489888;242;2196;-50
2022/08/19 07:19:42;;;;;;;;;;;22.00;43.80;;;;;;489685;242;1208;-50
2022/08/19 07:21:42;;;;;;;;;;;22.00;43.70;;;;;;489529;242;2560;-50
2022/08/19 07:23:43;;;;;;;;;;;22.00;43.80;;;;;;489476;242;1140;-50
2022/08/19 07:25:46;;;;;;;;;;;22.00;43.80;;;;;;489248;242;1104;-50
2022/08/19 07:27:46;;;;;;;;;;;22.00;43.80;;;;;;489490;242;2409;-50
2022/08/19 07:29:47;;;;;;;;;;;22.00;43.90;;;;;;489461;242;1248;-50
2022/08/19 07:31:49;;;;;;;;;;;22.00;43.90;;;;;;489652;242;1261;-50
2022/08/19 07:33:50;;;;;;;;;;;22.00;43.90;;;;;;489565;242;1157;-50
2022/08/19 07:35:51;;;;;;;;;;;22.00;43.90;;;;;;489613;242;2161;-50
2022/08/19 07:37:53;;;;;;;;;;;22.00;44.00;;;;;;489456;242;1544;-50
2022/08/19 07:39:54;;;;;;;;;;;22.00;44.10;;;;;;489463;242;1509;-51
2022/08/19 07:41:55;;;;;;;;;;;22.00;44.10;;;;;;489215;242;1238;-50
2022/08/19 07:43:57;;;;;;;;;;;22.00;43.90;;;;;;489519;242;1295;-50
2022/08/19 07:45:58;;;;;;;;;;;22.00;44.00;;;;;;489435;242;1218;-50
2022/08/19 07:48:00;;;;;;;;;;;22.00;44.00;;;;;;489568;242;1258;-51
2022/08/19 07:50:01;;;;;;;;;;;22.00;44.10;;;;;;489524;242;2273;-50
2022/08/19 07:52:02;;;;;;;;;;;22.00;44.10;;;;;;489981;242;1583;-51
2022/08/19 07:54:03;;;;;;;;;;;22.00;44.20;;;;;;489419;242;1281;-51
2022/08/19 07:56:05;;;;;;;;;;;22.00;44.10;;;;;;489257;242;2184;-50
2022/08/19 07:58:13;;;;;;;;;;;22.00;44.20;;;;;;489497;242;1174;-51
2022/08/19 08:00:14;;;;;;;;;;;22.00;44.20;;;;;;489836;242;1190;-51
2022/08/19 08:02:16;;;;;;;;;;;22.00;44.30;;;;;;489556;242;1264;-51
2022/08/19 08:09:20;;;;;;;;;;;22.00;44.30;;;;;;489573;241;1251;-51
2022/08/19 08:11:17;;;;;;;;;;;22.00;44.30;;;;;;489746;242;2398;-50
2022/08/19 08:13:18;;;;;;;;;;;22.00;44.40;;;;;;489710;242;1628;-50
2022/08/19 08:15:20;;;;;;;;;;;22.00;44.40;;;;;;489525;242;1244;-50
2022/08/19 08:17:21;;;;;;;;;;;22.00;44.40;;;;;;489585;242;2166;-50
2022/08/19 08:19:23;;;;;;;;;;;22.00;44.40;;;;;;489583;242;1216;-50
2022/08/19 08:21:24;;;;;;;;;;;22.00;44.50;;;;;;489841;242;1224;-51
2022/08/19 08:23:25;;;;;;;;;;;22.00;44.50;;;;;;489759;242;1274;-50
2022/08/19 08:25:26;;;;;;;;;;;22.00;44.40;;;;;;489518;242;1279;-51
2022/08/19 08:27:30;;;;;;;;;;;22.00;44.50;;;;;;489566;242;1354;-51
2022/08/19 08:29:29;;;;;;;;;;;22.10;44.50;;;;;;489524;242;1463;-50
2022/08/19 08:31:32;;;;;;;;;;;22.10;44.50;;;;;;489487;242;1232;-51
2022/08/19 08:33:32;;;;;;;;;;;22.00;44.50;;;;;;489602;242;2266;-51
2022/08/19 08:35:34;;;;;;;;;;;22.00;44.60;;;;;;489847;242;1213;-50
2022/08/19 08:37:35;;;;;;;;;;;22.00;44.50;;;;;;489744;242;2193;-51
2022/08/19 08:39:36;;;;;;;;;;;22.00;44.50;;;;;;489834;242;1517;-51
2022/08/19 08:41:38;;;;;;;;;;;22.10;44.50;;;;;;489557;242;1216;-50
2022/08/19 08:43:42;;;;;;;;;;;22.00;44.50;;;;;;489723;242;1317;-50
2022/08/19 08:45:41;;;;;;;;;;;22.10;44.60;;;;;;489578;242;1238;-51
2022/08/19 08:47:42;;;;;;;;;;;22.10;44.70;;;;;;489568;242;1387;-51
2022/08/19 08:49:43;;;;;;;;;;;22.00;44.70;;;;;;489647;242;1333;-51
2022/08/19 08:51:44;;;;;;;;;;;22.10;44.70;;;;;;489609;242;1146;-50
2022/08/19 08:53:46;;;;;;;;;;;22.10;44.90;;;;;;489640;242;1235;-51
2022/08/19 08:55:47;;;;;;;;;;;22.00;44.70;;;;;;488811;242;1233;-50
2022/08/19 08:57:50;;;;;;;;;;;22.00;44.80;;;;;;489581;242;2185;-51
2022/08/19 08:59:50;;;;;;;;;;;22.00;44.80;;;;;;489357;242;2100;-50
2022/08/19 09:01:51;;;;;;;;;;;22.10;44.90;;;;;;489504;242;1308;-50
2022/08/19 09:03:53;;;;;;;;;;;22.00;44.80;;;;;;489452;242;1270;-50
2022/08/19 09:05:54;;;;;;;;;;;22.00;44.80;;;;;;489494;242;1216;-51
2022/08/19 09:07:55;;;;;;;;;;;22.10;44.90;;;;;;489801;242;1270;-51
2022/08/19 09:09:57;;;;;;;;;;;22.10;45.10;;;;;;489479;242;1510;-50
2022/08/19 09:11:58;;;;;;;;;;;22.10;45.20;;;;;;489463;242;1282;-50
2022/08/19 09:14:00;;;;;;;;;;;22.10;45.30;;;;;;489696;242;1184;-50
2022/08/19 09:16:01;;;;;;;;;;;22.00;45.30;;;;;;489521;242;1320;-51
2022/08/19 09:18:03;;;;;;;;;;;22.00;45.20;;;;;;489517;242;2189;-50
2022/08/19 09:20:06;;;;;;;;;;;22.00;45.20;;;;;;489551;242;1211;-51
2022/08/19 09:22:07;;;;;;;;;;;22.00;45.20;;;;;;489602;242;2290;-51
2022/08/19 09:24:07;;;;;;;;;;;22.00;45.20;;;;;;489401;242;2055;-51
2022/08/19 09:26:08;;;;;;;;;;;22.00;45.20;;;;;;489448;242;1286;-51
2022/08/19 09:28:10;;;;;;;;;;;22.00;45.20;;;;;;489415;242;1266;-51
2022/08/19 09:30:11;;;;;;;;;;;22.00;45.20;;;;;;489502;242;1240;-50
2022/08/19 09:32:12;;;;;;;;;;;22.00;45.20;;;;;;489576;242;1258;-50
2022/08/19 09:34:14;;;;;;;;;;;22.00;45.20;;;;;;489582;242;1237;-50
2022/08/19 09:36:15;;;;;;;;;;;22.10;45.30;;;;;;489740;242;1523;-50
2022/08/19 09:38:16;;;;;;;;;;;22.00;45.40;;;;;;489643;242;2158;-51
2022/08/19 09:40:18;;;;;;;;;;;22.00;45.30;;;;;;489735;242;1390;-50
2022/08/19 09:42:19;;;;;;;;;;;22.10;45.30;;;;;;489714;242;1203;-50
2022/08/19 09:44:21;;;;;;;;;;;22.00;45.20;;;;;;489469;242;1589;-50
2022/08/19 09:46:22;;;;;;;;;;;22.00;45.20;;;;;;489775;242;1298;-51
2022/08/19 09:48:23;;;;;;;;;;;22.00;45.30;;;;;;489483;242;1379;-50
2022/08/19 09:50:25;;;;;;;;;;;22.10;45.30;;;;;;489727;242;1237;-51
2022/08/19 09:52:26;;;;;;;;;;;22.10;45.30;;;;;;489672;242;1306;-51
2022/08/19 09:54:28;;;;;;;;;;;22.00;45.30;;;;;;489656;242;1288;-51
2022/08/19 09:56:29;;;;;;;;;;;22.00;45.20;;;;;;489419;242;2015;-50
2022/08/19 09:58:30;;;;;;;;;;;22.00;45.30;;;;;;489786;242;2417;-51
2022/08/19 10:00:31;;;;;;;;;;;22.00;45.30;;;;;;489457;242;1300;-50
2022/08/19 10:02:33;;;;;;;;;;;22.00;45.30;;;;;;489576;242;1232;-51
2022/08/19 10:06:53;;;;;;;;;;;22.10;45.40;;;;;;489558;241;1567;-51
2022/08/19 10:08:55;;;;;;;;;;;22.10;45.40;;;;;;489745;242;1344;-50
2022/08/19 10:10:56;;;;;;;;;;;22.10;45.30;;;;;;489666;242;1263;-51
2022/08/19 10:12:57;;;;;;;;;;;22.10;45.40;;;;;;489741;242;1470;-51
2022/08/19 10:14:59;;;;;;;;;;;22.10;45.40;;;;;;489484;242;1188;-50
2022/08/19 10:17:02;;;;;;;;;;;22.10;45.40;;;;;;489839;242;2192;-51
2022/08/19 10:19:02;;;;;;;;;;;22.10;45.40;;;;;;489521;242;1424;-51
2022/08/19 10:21:03;;;;;;;;;;;22.10;45.40;;;;;;489167;242;1500;-51
2022/08/19 10:23:04;;;;;;;;;;;22.10;45.50;;;;;;489341;242;1159;-50
2022/08/19 10:25:06;;;;;;;;;;;22.10;45.40;;;;;;489458;242;1174;-51
2022/08/19 10:27:07;;;;;;;;;;;22.10;45.40;;;;;;489687;242;1384;-51
2022/08/19 10:29:09;;;;;;;;;;;22.10;45.50;;;;;;489574;242;1137;-51
2022/08/19 10:31:09;;;;;;;;;;;22.10;45.50;;;;;;489675;242;2370;-51
2022/08/19 10:33:11;;;;;;;;;;;22.00;45.40;;;;;;489538;242;1216;-51
2022/08/19 10:35:12;;;;;;;;;;;22.10;45.50;;;;;;489765;242;1418;-51
2022/08/19 10:37:13;;;;;;;;;;;22.10;45.60;;;;;;489627;242;2161;-51
2022/08/19 10:39:15;;;;;;;;;;;22.10;45.60;;;;;;489678;242;1280;-50
2022/08/19 10:41:16;;;;;;;;;;;22.10;45.50;;;;;;489488;242;1553;-50
2022/08/19 10:43:17;;;;;;;;;;;22.10;45.60;;;;;;489512;242;1369;-50
2022/08/19 10:45:22;;;;;;;;;;;22.10;45.60;;;;;;489559;242;1205;-50
2022/08/19 10:47:21;;;;;;;;;;;22.10;45.60;;;;;;489685;242;2252;-50
2022/08/19 10:49:23;;;;;;;;;;;22.10;45.60;;;;;;489444;242;1303;-50
2022/08/19 10:53:43;;;;;;;;;;;22.10;45.60;;;;;;489463;241;1428;-50
2022/08/19 10:58:03;;;;;;;;;;;22.10;45.60;;;;;;489931;241;2161;-51
2022/08/19 11:00:04;;;;;;;;;;;22.10;45.70;;;;;;489391;242;1759;-51
2022/08/19 11:02:06;;;;;;;;;;;22.10;45.70;;;;;;489681;242;1220;-50
2022/08/19 11:04:09;;;;;;;;;;;22.10;45.80;;;;;;489453;242;1410;-50
2022/08/19 11:06:09;;;;;;;;;;;22.10;45.70;;;;;;489710;242;1525;-51
2022/08/19 11:08:11;;;;;;;;;;;22.10;45.70;;;;;;489454;242;1264;-51
2022/08/19 11:10:12;;;;;;;;;;;22.10;45.70;;;;;;489371;242;2384;-50
2022/08/19 11:12:14;;;;;;;;;;;22.10;45.70;;;;;;489454;242;2124;-50
2022/08/19 11:14:14;;;;;;;;;;;22.10;45.70;;;;;;489504;242;1917;-51
2022/08/19 11:16:16;;;;;;;;;;;22.10;45.80;;;;;;489638;242;1367;-51
2022/08/19 11:18:17;;;;;;;;;;;22.10;45.70;;;;;;489553;242;2188;-51
2022/08/19 11:20:19;;;;;;;;;;;22.10;45.80;;;;;;489534;242;1337;-50
2022/08/19 11:22:20;;;;;;;;;;;22.10;45.80;;;;;;489473;242;1251;-50
2022/08/19 11:24:21;;;;;;;;;;;22.10;45.80;;;;;;489396;242;1358;-51
2022/08/19 11:26:23;;;;;;;;;;;22.10;45.80;;;;;;489952;242;1237;-50
2022/08/19 11:28:24;;;;;;;;;;;22.10;45.90;;;;;;489917;242;1200;-51
2022/08/19 11:30:25;;;;;;;;;;;22.10;45.80;;;;;;489641;242;1229;-50
2022/08/19 11:32:27;;;;;;;;;;;22.10;45.80;;;;;;489494;242;1211;-51
2022/08/19 11:34:29;;;;;;;;;;;22.10;45.80;;;;;;489687;242;1219;-51
2022/08/19 11:36:29;;;;;;;;;;;22.10;45.80;;;;;;489732;242;2032;-50
2022/08/19 11:38:31;;;;;;;;;;;22.10;45.80;;;;;;489652;242;2209;-51
2022/08/19 11:40:33;;;;;;;;;;;22.10;45.80;;;;;;489540;242;1140;-50
2022/08/19 11:44:53;;;;;;;;;;;22.10;45.90;;;;;;489962;241;1297;-50
2022/08/19 11:46:54;;;;;;;;;;;22.10;45.90;;;;;;489240;242;1391;-50
2022/08/19 11:48:55;;;;;;;;;;;22.10;45.90;;;;;;489691;242;1258;-51
2022/08/19 11:50:57;;;;;;;;;;;22.10;45.80;;;;;;489689;242;1243;-50
2022/08/19 11:52:58;;;;;;;;;;;22.10;45.90;;;;;;489560;242;1165;-50
2022/08/19 11:54:59;;;;;;;;;;;22.10;45.80;;;;;;489718;242;1191;-50
2022/08/19 11:57:01;;;;;;;;;;;22.10;45.90;;;;;;489537;242;1232;-50
2022/08/19 11:59:02;;;;;;;;;;;22.10;45.90;;;;;;489515;242;2185;-51
2022/08/19 12:01:03;;;;;;;;;;;22.10;46.00;;;;;;489921;242;1196;-50
2022/08/19 12:03:05;;;;;;;;;;;22.10;46.00;;;;;;489923;242;1338;-50
2022/08/19 12:05:06;;;;;;;;;;;22.10;46.00;;;;;;489543;242;1224;-51
2022/08/19 12:07:07;;;;;;;;;;;22.10;46.00;;;;;;489552;242;1172;-50
2022/08/19 12:09:09;;;;;;;;;;;22.10;46.00;;;;;;489484;242;1350;-49
2022/08/19 12:11:10;;;;;;;;;;;22.10;46.10;;;;;;489477;242;1303;-50
2022/08/19 12:13:13;;;;;;;;;;;22.10;46.20;;;;;;489615;242;1234;-50
2022/08/19 12:15:14;;;;;;;;;;;22.10;46.20;;;;;;489977;242;1818;-50
2022/08/19 12:17:15;;;;;;;;;;;22.10;46.30;;;;;;489960;242;2327;-50
2022/08/19 12:19:15;;;;;;;;;;;22.10;46.30;;;;;;489502;242;2133;-50
2022/08/19 12:21:17;;;;;;;;;;;22.10;46.40;;;;;;489517;242;1391;-50
2022/08/19 12:23:18;;;;;;;;;;;22.10;46.40;;;;;;489538;242;1262;-55